Raisin, Texas
Current Conditions -  °F | °C
As of 10:51 AM on Saturday 22 Nov 2014 (Local Time) from KVCT Reporting Station
Light Rain Light Rain  
Wind Chill: 72°   Ceiling: 3000
Heat Index: 72°   Visibility: 8mi
Dew Point: 66°   Wind: 20mph
Humidity: 81%   Direction: 120°ESE
Pressure: 29.97"   Gusts: NA
Location:  28.877°N, 97.189°W
Report Text: KVCT 221651Z 12017KT 8SM -RA SCT022 BKN030 OVC044 22/19 A2997 RMK AO2 LTG DSNT S RAE00B49 SLP145 P0000 T02220189
Loading
Personal Weather Stations






























Interactive Weather Map New forecast layout! Learn more

10-Day Weather Forecast

Advertisements
Track Severe Weather on mobile